sensor_id;sensor_type;location;lat;lon;timestamp;temperature;humidity
15298;DHT22;7750;48.796;9.026;2022-12-01T00:02:54;8.00;78.50
15298;DHT22;7750;48.796;9.026;2022-12-01T00:07:55;8.00;78.50
15298;DHT22;7750;48.796;9.026;2022-12-01T00:12:59;8.00;78.30
15298;DHT22;7750;48.796;9.026;2022-12-01T00:18:04;8.00;78.20
15298;DHT22;7750;48.796;9.026;2022-12-01T00:23:05;7.90;78.20
15298;DHT22;7750;48.796;9.026;2022-12-01T00:28:06;8.00;78.10
15298;DHT22;7750;48.796;9.026;2022-12-01T00:33:06;7.90;78.60
15298;DHT22;7750;48.796;9.026;2022-12-01T00:38:07;7.90;77.90
15298;DHT22;7750;48.796;9.026;2022-12-01T00:43:07;7.90;77.70
15298;DHT22;7750;48.796;9.026;2022-12-01T00:48:08;7.80;77.80
15298;DHT22;7750;48.796;9.026;2022-12-01T00:53:09;7.80;77.80
15298;DHT22;7750;48.796;9.026;2022-12-01T00:58:09;7.80;77.90
15298;DHT22;7750;48.796;9.026;2022-12-01T01:03:11;7.70;77.90
15298;DHT22;7750;48.796;9.026;2022-12-01T01:08:13;7.70;78.00
15298;DHT22;7750;48.796;9.026;2022-12-01T01:13:14;7.70;77.80
15298;DHT22;7750;48.796;9.026;2022-12-01T01:18:15;7.70;77.80
15298;DHT22;7750;48.796;9.026;2022-12-01T01:23:16;7.70;78.00
15298;DHT22;7750;48.796;9.026;2022-12-01T01:28:17;7.70;78.80
15298;DHT22;7750;48.796;9.026;2022-12-01T01:33:19;7.70;78.00
15298;DHT22;7750;48.796;9.026;2022-12-01T01:38:19;7.70;77.90
15298;DHT22;7750;48.796;9.026;2022-12-01T01:43:48;7.70;78.00
15298;DHT22;7750;48.796;9.026;2022-12-01T01:49:04;7.70;78.00
15298;DHT22;7750;48.796;9.026;2022-12-01T01:54:11;7.70;78.20
15298;DHT22;7750;48.796;9.026;2022-12-01T01:59:19;7.70;77.90
15298;DHT22;7750;48.796;9.026;2022-12-01T02:04:22;7.70;77.90
15298;DHT22;7750;48.796;9.026;2022-12-01T02:09:23;7.70;77.80
15298;DHT22;7750;48.796;9.026;2022-12-01T02:30:24;7.70;77.40
15298;DHT22;7750;48.796;9.026;2022-12-01T02:46:16;7.70;77.30
15298;DHT22;7750;48.796;9.026;2022-12-01T02:51:37;7.60;77.40
15298;DHT22;7750;48.796;9.026;2022-12-01T02:56:39;7.70;77.20
15298;DHT22;7750;48.796;9.026;2022-12-01T03:23:19;7.60;77.20
15298;DHT22;7750;48.796;9.026;2022-12-01T03:28:24;7.60;76.90
15298;DHT22;7750;48.796;9.026;2022-12-01T03:33:42;7.50;76.50
15298;DHT22;7750;48.796;9.026;2022-12-01T03:38:49;7.50;76.40
15298;DHT22;7750;48.796;9.026;2022-12-01T03:43:56;7.40;76.20
15298;DHT22;7750;48.796;9.026;2022-12-01T03:48:58;7.40;76.60
15298;DHT22;7750;48.796;9.026;2022-12-01T03:54:07;7.40;77.10
15298;DHT22;7750;48.796;9.026;2022-12-01T03:59:10;7.40;76.60
15298;DHT22;7750;48.796;9.026;2022-12-01T04:04:13;7.40;76.30
15298;DHT22;7750;48.796;9.026;2022-12-01T04:09:14;7.40;76.70
15298;DHT22;7750;48.796;9.026;2022-12-01T04:14:14;7.30;76.70
15298;DHT22;7750;48.796;9.026;2022-12-01T04:19:15;7.40;76.50
15298;DHT22;7750;48.796;9.026;2022-12-01T04:24:16;7.40;76.50
15298;DHT22;7750;48.796;9.026;2022-12-01T04:29:16;7.30;76.30
15298;DHT22;7750;48.796;9.026;2022-12-01T04:34:17;7.30;76.30
15298;DHT22;7750;48.796;9.026;2022-12-01T04:39:17;7.20;76.20
15298;DHT22;7750;48.796;9.026;2022-12-01T04:44:18;7.30;76.40
15298;DHT22;7750;48.796;9.026;2022-12-01T04:49:20;7.20;76.40
15298;DHT22;7750;48.796;9.026;2022-12-01T04:54:21;7.20;76.50
15298;DHT22;7750;48.796;9.026;2022-12-01T04:59:21;7.20;76.40
15298;DHT22;7750;48.796;9.026;2022-12-01T05:04:22;7.20;76.60
15298;DHT22;7750;48.796;9.026;2022-12-01T05:09:23;7.10;76.50
15298;DHT22;7750;48.796;9.026;2022-12-01T05:14:23;7.10;76.70
15298;DHT22;7750;48.796;9.026;2022-12-01T05:19:24;7.10;76.70
15298;DHT22;7750;48.796;9.026;2022-12-01T05:24:44;7.10;77.00
15298;DHT22;7750;48.796;9.026;2022-12-01T05:29:44;7.10;77.00
15298;DHT22;7750;48.796;9.026;2022-12-01T05:34:45;7.20;76.80
15298;DHT22;7750;48.796;9.026;2022-12-01T05:39:45;7.20;77.00
15298;DHT22;7750;48.796;9.026;2022-12-01T05:44:46;7.20;77.20
15298;DHT22;7750;48.796;9.026;2022-12-01T05:49:47;7.20;77.10
15298;DHT22;7750;48.796;9.026;2022-12-01T05:54:47;7.20;77.10
15298;DHT22;7750;48.796;9.026;2022-12-01T05:59:48;7.20;77.10
15298;DHT22;7750;48.796;9.026;2022-12-01T06:04:48;7.30;77.10
15298;DHT22;7750;48.796;9.026;2022-12-01T06:09:49;7.20;76.80
15298;DHT22;7750;48.796;9.026;2022-12-01T06:14:50;7.20;76.80
15298;DHT22;7750;48.796;9.026;2022-12-01T06:19:50;7.20;76.60
15298;DHT22;7750;48.796;9.026;2022-12-01T06:24:51;7.20;76.90
15298;DHT22;7750;48.796;9.026;2022-12-01T06:29:52;7.20;77.00
15298;DHT22;7750;48.796;9.026;2022-12-01T06:34:52;7.20;77.10
15298;DHT22;7750;48.796;9.026;2022-12-01T06:39:53;7.10;77.00
15298;DHT22;7750;48.796;9.026;2022-12-01T06:44:53;7.20;76.90
15298;DHT22;7750;48.796;9.026;2022-12-01T06:49:54;7.10;77.20
15298;DHT22;7750;48.796;9.026;2022-12-01T06:54:55;7.20;77.20
15298;DHT22;7750;48.796;9.026;2022-12-01T06:59:55;7.20;77.40
15298;DHT22;7750;48.796;9.026;2022-12-01T07:04:56;7.20;77.20
15298;DHT22;7750;48.796;9.026;2022-12-01T07:09:56;7.20;77.20
15298;DHT22;7750;48.796;9.026;2022-12-01T07:14:57;7.20;77.20
15298;DHT22;7750;48.796;9.026;2022-12-01T07:19:58;7.20;77.30
15298;DHT22;7750;48.796;9.026;2022-12-01T07:24:58;7.10;77.10
15298;DHT22;7750;48.796;9.026;2022-12-01T07:29:59;7.10;77.30
15298;DHT22;7750;48.796;9.026;2022-12-01T07:34:59;7.20;77.40
15298;DHT22;7750;48.796;9.026;2022-12-01T07:40:00;7.20;77.40
15298;DHT22;7750;48.796;9.026;2022-12-01T07:45:01;7.20;77.30
15298;DHT22;7750;48.796;9.026;2022-12-01T07:50:01;7.20;77.50
15298;DHT22;7750;48.796;9.026;2022-12-01T07:55:02;7.20;77.40
15298;DHT22;7750;48.796;9.026;2022-12-01T08:00:03;7.20;77.30
15298;DHT22;7750;48.796;9.026;2022-12-01T08:05:04;7.20;77.30
15298;DHT22;7750;48.796;9.026;2022-12-01T08:10:06;7.20;77.20
15298;DHT22;7750;48.796;9.026;2022-12-01T08:15:07;7.20;77.30
15298;DHT22;7750;48.796;9.026;2022-12-01T08:20:08;7.20;77.30
15298;DHT22;7750;48.796;9.026;2022-12-01T08:25:09;7.20;77.50
15298;DHT22;7750;48.796;9.026;2022-12-01T08:30:10;7.20;77.40
15298;DHT22;7750;48.796;9.026;2022-12-01T08:35:11;7.20;77.60
15298;DHT22;7750;48.796;9.026;2022-12-01T08:40:12;7.20;77.60
15298;DHT22;7750;48.796;9.026;2022-12-01T08:45:12;7.20;77.30
15298;DHT22;7750;48.796;9.026;2022-12-01T08:50:13;7.30;77.40
15298;DHT22;7750;48.796;9.026;2022-12-01T08:55:14;7.20;77.00
15298;DHT22;7750;48.796;9.026;2022-12-01T09:00:15;7.20;77.10
15298;DHT22;7750;48.796;9.026;2022-12-01T09:05:16;7.20;77.10
15298;DHT22;7750;48.796;9.026;2022-12-01T09:10:16;7.20;77.20
15298;DHT22;7750;48.796;9.026;2022-12-01T09:15:17;7.20;77.10
15298;DHT22;7750;48.796;9.026;2022-12-01T09:20:18;7.20;77.80
15298;DHT22;7750;48.796;9.026;2022-12-01T09:25:18;7.20;77.40
15298;DHT22;7750;48.796;9.026;2022-12-01T09:30:19;7.20;77.50
15298;DHT22;7750;48.796;9.026;2022-12-01T09:35:20;7.20;77.40
15298;DHT22;7750;48.796;9.026;2022-12-01T09:40:23;7.20;77.50
15298;DHT22;7750;48.796;9.026;2022-12-01T09:45:29;7.20;77.60
15298;DHT22;7750;48.796;9.026;2022-12-01T09:50:31;7.20;78.30
15298;DHT22;7750;48.796;9.026;2022-12-01T09:55:33;7.20;77.80
15298;DHT22;7750;48.796;9.026;2022-12-01T10:00:38;7.20;77.80
15298;DHT22;7750;48.796;9.026;2022-12-01T10:05:50;7.20;77.60
15298;DHT22;7750;48.796;9.026;2022-12-01T10:16:21;7.20;77.70
15298;DHT22;7750;48.796;9.026;2022-12-01T10:32:18;7.20;77.50
15298;DHT22;7750;48.796;9.026;2022-12-01T10:37:21;7.20;77.70
15298;DHT22;7750;48.796;9.026;2022-12-01T10:42:35;7.20;77.60
15298;DHT22;7750;48.796;9.026;2022-12-01T10:47:36;7.30;77.60
15298;DHT22;7750;48.796;9.026;2022-12-01T10:52:39;7.20;77.50
15298;DHT22;7750;48.796;9.026;2022-12-01T10:57:44;7.30;77.70
15298;DHT22;7750;48.796;9.026;2022-12-01T11:02:47;7.30;77.80
15298;DHT22;7750;48.796;9.026;2022-12-01T11:07:49;7.30;78.20
15298;DHT22;7750;48.796;9.026;2022-12-01T11:13:06;7.40;78.20
15298;DHT22;7750;48.796;9.026;2022-12-01T11:18:42;7.50;78.00
15298;DHT22;7750;48.796;9.026;2022-12-01T11:23:51;7.50;77.80
15298;DHT22;7750;48.796;9.026;2022-12-01T11:28:58;7.50;77.70
15298;DHT22;7750;48.796;9.026;2022-12-01T11:33:59;7.50;77.80
15298;DHT22;7750;48.796;9.026;2022-12-01T11:39:01;7.50;77.80
15298;DHT22;7750;48.796;9.026;2022-12-01T11:44:03;7.50;77.70
15298;DHT22;7750;48.796;9.026;2022-12-01T11:49:05;7.50;77.70
15298;DHT22;7750;48.796;9.026;2022-12-01T11:54:23;7.50;77.70
15298;DHT22;7750;48.796;9.026;2022-12-01T11:59:26;7.50;78.40
15298;DHT22;7750;48.796;9.026;2022-12-01T12:31:40;7.70;77.40
15298;DHT22;7750;48.796;9.026;2022-12-01T12:42:02;7.70;77.50
15298;DHT22;7750;48.796;9.026;2022-12-01T12:52:19;7.70;77.60
15298;DHT22;7750;48.796;9.026;2022-12-01T12:57:34;7.70;77.70
15298;DHT22;7750;48.796;9.026;2022-12-01T13:02:50;7.80;77.80
15298;DHT22;7750;48.796;9.026;2022-12-01T13:08:10;7.80;78.10
15298;DHT22;7750;48.796;9.026;2022-12-01T13:13:59;7.80;77.50
15298;DHT22;7750;48.796;9.026;2022-12-01T13:19:06;7.90;77.20
15298;DHT22;7750;48.796;9.026;2022-12-01T13:24:13;7.80;77.10
15298;DHT22;7750;48.796;9.026;2022-12-01T13:29:21;7.80;77.20
15298;DHT22;7750;48.796;9.026;2022-12-01T13:34:39;7.80;77.30
15298;DHT22;7750;48.796;9.026;2022-12-01T13:39:41;7.80;77.50
15298;DHT22;7750;48.796;9.026;2022-12-01T13:45:16;7.80;77.60
15298;DHT22;7750;48.796;9.026;2022-12-01T13:50:52;7.90;77.40
15298;DHT22;7750;48.796;9.026;2022-12-01T14:06:27;7.90;77.30
15298;DHT22;7750;48.796;9.026;2022-12-01T14:11:29;7.90;77.50
15298;DHT22;7750;48.796;9.026;2022-12-01T14:16:52;7.80;77.30
15298;DHT22;7750;48.796;9.026;2022-12-01T14:21:53;7.90;77.60
15298;DHT22;7750;48.796;9.026;2022-12-01T14:26:54;7.90;77.50
15298;DHT22;7750;48.796;9.026;2022-12-01T14:37:06;7.90;77.60
15298;DHT22;7750;48.796;9.026;2022-12-01T14:42:32;7.90;77.50
15298;DHT22;7750;48.796;9.026;2022-12-01T14:48:03;8.00;77.70
15298;DHT22;7750;48.796;9.026;2022-12-01T14:53:16;7.90;77.60
15298;DHT22;7750;48.796;9.026;2022-12-01T14:58:30;8.00;77.70
15298;DHT22;7750;48.796;9.026;2022-12-01T15:03:44;8.00;77.50
15298;DHT22;7750;48.796;9.026;2022-12-01T15:08:49;8.00;77.50
15298;DHT22;7750;48.796;9.026;2022-12-01T15:14:02;8.00;77.80
15298;DHT22;7750;48.796;9.026;2022-12-01T15:19:21;8.00;77.60
15298;DHT22;7750;48.796;9.026;2022-12-01T15:24:27;8.00;77.30
15298;DHT22;7750;48.796;9.026;2022-12-01T15:29:36;8.00;77.30
15298;DHT22;7750;48.796;9.026;2022-12-01T15:34:41;8.00;77.50
15298;DHT22;7750;48.796;9.026;2022-12-01T15:39:51;8.00;77.50
15298;DHT22;7750;48.796;9.026;2022-12-01T15:45:15;7.90;77.60
15298;DHT22;7750;48.796;9.026;2022-12-01T15:50:26;7.90;77.60
15298;DHT22;7750;48.796;9.026;2022-12-01T15:55:33;7.90;77.50
15298;DHT22;7750;48.796;9.026;2022-12-01T16:00:34;7.90;77.70
15298;DHT22;7750;48.796;9.026;2022-12-01T16:05:35;7.90;77.70
15298;DHT22;7750;48.796;9.026;2022-12-01T16:10:36;7.90;77.70
15298;DHT22;7750;48.796;9.026;2022-12-01T16:15:42;8.20;77.10
15298;DHT22;7750;48.796;9.026;2022-12-01T16:20:43;8.10;77.20
15298;DHT22;7750;48.796;9.026;2022-12-01T16:25:45;8.00;77.20
15298;DHT22;7750;48.796;9.026;2022-12-01T16:30:47;8.00;77.50
15298;DHT22;7750;48.796;9.026;2022-12-01T16:35:49;7.90;77.60
15298;DHT22;7750;48.796;9.026;2022-12-01T16:41:17;7.90;77.70
15298;DHT22;7750;48.796;9.026;2022-12-01T16:46:24;7.90;78.10
15298;DHT22;7750;48.796;9.026;2022-12-01T16:51:24;7.90;78.20
15298;DHT22;7750;48.796;9.026;2022-12-01T16:56:25;7.90;78.40
15298;DHT22;7750;48.796;9.026;2022-12-01T17:01:27;7.90;78.60
15298;DHT22;7750;48.796;9.026;2022-12-01T17:06:28;7.90;78.80
15298;DHT22;7750;48.796;9.026;2022-12-01T17:11:29;7.90;78.90
15298;DHT22;7750;48.796;9.026;2022-12-01T17:16:29;7.90;78.80
15298;DHT22;7750;48.796;9.026;2022-12-01T17:21:30;7.90;78.70
15298;DHT22;7750;48.796;9.026;2022-12-01T17:26:31;7.90;78.80
15298;DHT22;7750;48.796;9.026;2022-12-01T17:31:31;7.90;78.90
15298;DHT22;7750;48.796;9.026;2022-12-01T17:36:32;7.90;79.00
15298;DHT22;7750;48.796;9.026;2022-12-01T17:41:32;7.90;79.00
15298;DHT22;7750;48.796;9.026;2022-12-01T17:46:35;7.90;79.00
15298;DHT22;7750;48.796;9.026;2022-12-01T17:51:40;7.90;79.00
15298;DHT22;7750;48.796;9.026;2022-12-01T17:56:41;7.90;79.00
15298;DHT22;7750;48.796;9.026;2022-12-01T18:01:42;7.80;79.00
15298;DHT22;7750;48.796;9.026;2022-12-01T18:06:43;7.80;79.00
15298;DHT22;7750;48.796;9.026;2022-12-01T18:16:53;7.80;79.40
15298;DHT22;7750;48.796;9.026;2022-12-01T18:21:54;7.80;79.50
15298;DHT22;7750;48.796;9.026;2022-12-01T18:26:54;7.80;79.30
15298;DHT22;7750;48.796;9.026;2022-12-01T18:31:57;7.80;79.30
15298;DHT22;7750;48.796;9.026;2022-12-01T18:37:00;7.90;79.40
15298;DHT22;7750;48.796;9.026;2022-12-01T18:42:01;7.90;80.10
15298;DHT22;7750;48.796;9.026;2022-12-01T18:47:02;7.90;79.60
15298;DHT22;7750;48.796;9.026;2022-12-01T18:52:03;7.90;79.40
15298;DHT22;7750;48.796;9.026;2022-12-01T18:57:04;7.90;79.50
15298;DHT22;7750;48.796;9.026;2022-12-01T19:02:04;8.00;79.50
15298;DHT22;7750;48.796;9.026;2022-12-01T19:07:06;8.00;79.50
15298;DHT22;7750;48.796;9.026;2022-12-01T19:12:06;8.00;79.40
15298;DHT22;7750;48.796;9.026;2022-12-01T19:17:07;8.00;79.30
15298;DHT22;7750;48.796;9.026;2022-12-01T19:22:08;8.00;79.30
15298;DHT22;7750;48.796;9.026;2022-12-01T19:27:08;8.00;79.30
15298;DHT22;7750;48.796;9.026;2022-12-01T19:32:09;7.90;79.20
15298;DHT22;7750;48.796;9.026;2022-12-01T19:37:10;7.90;79.20
15298;DHT22;7750;48.796;9.026;2022-12-01T19:42:11;7.90;79.40
15298;DHT22;7750;48.796;9.026;2022-12-01T19:47:11;7.90;79.50
15298;DHT22;7750;48.796;9.026;2022-12-01T19:52:12;7.90;79.40
15298;DHT22;7750;48.796;9.026;2022-12-01T19:57:12;7.90;79.40
15298;DHT22;7750;48.796;9.026;2022-12-01T20:02:13;7.80;79.50
15298;DHT22;7750;48.796;9.026;2022-12-01T20:07:13;7.90;79.50
15298;DHT22;7750;48.796;9.026;2022-12-01T20:12:14;7.80;79.50
15298;DHT22;7750;48.796;9.026;2022-12-01T20:17:15;7.80;79.60
15298;DHT22;7750;48.796;9.026;2022-12-01T20:22:15;7.80;79.80
15298;DHT22;7750;48.796;9.026;2022-12-01T20:27:16;7.90;79.90
15298;DHT22;7750;48.796;9.026;2022-12-01T20:32:17;7.90;79.90
15298;DHT22;7750;48.796;9.026;2022-12-01T20:37:17;7.90;80.00
15298;DHT22;7750;48.796;9.026;2022-12-01T20:42:18;7.90;80.00
15298;DHT22;7750;48.796;9.026;2022-12-01T20:47:21;7.90;80.00
15298;DHT22;7750;48.796;9.026;2022-12-01T20:52:22;7.90;80.10
15298;DHT22;7750;48.796;9.026;2022-12-01T20:57:22;7.90;80.00
15298;DHT22;7750;48.796;9.026;2022-12-01T21:02:23;8.00;80.10
15298;DHT22;7750;48.796;9.026;2022-12-01T21:07:24;7.90;80.10
15298;DHT22;7750;48.796;9.026;2022-12-01T21:12:27;7.90;80.00
15298;DHT22;7750;48.796;9.026;2022-12-01T21:18:03;8.00;80.30
15298;DHT22;7750;48.796;9.026;2022-12-01T21:23:13;8.00;80.30
15298;DHT22;7750;48.796;9.026;2022-12-01T21:28:19;8.00;80.20
15298;DHT22;7750;48.796;9.026;2022-12-01T21:33:31;8.00;80.20
15298;DHT22;7750;48.796;9.026;2022-12-01T21:38:32;8.00;80.20
15298;DHT22;7750;48.796;9.026;2022-12-01T21:43:34;8.00;80.20
15298;DHT22;7750;48.796;9.026;2022-12-01T21:48:35;7.90;80.00
15298;DHT22;7750;48.796;9.026;2022-12-01T21:53:38;8.00;80.10
15298;DHT22;7750;48.796;9.026;2022-12-01T21:58:38;7.90;80.10
15298;DHT22;7750;48.796;9.026;2022-12-01T22:03:43;7.90;80.10
15298;DHT22;7750;48.796;9.026;2022-12-01T22:08:45;7.90;80.30
15298;DHT22;7750;48.796;9.026;2022-12-01T22:24:25;8.00;80.30
15298;DHT22;7750;48.796;9.026;2022-12-01T22:29:30;8.00;80.40
15298;DHT22;7750;48.796;9.026;2022-12-01T22:34:31;8.00;80.40
15298;DHT22;7750;48.796;9.026;2022-12-01T22:39:33;7.90;80.30
15298;DHT22;7750;48.796;9.026;2022-12-01T22:44:33;8.00;80.30
15298;DHT22;7750;48.796;9.026;2022-12-01T22:49:34;8.00;80.40
15298;DHT22;7750;48.796;9.026;2022-12-01T22:54:45;8.00;80.30
15298;DHT22;7750;48.796;9.026;2022-12-01T22:59:48;8.00;80.40
15298;DHT22;7750;48.796;9.026;2022-12-01T23:05:13;8.00;80.30
15298;DHT22;7750;48.796;9.026;2022-12-01T23:10:21;8.00;80.40
15298;DHT22;7750;48.796;9.026;2022-12-01T23:15:39;8.10;81.20
15298;DHT22;7750;48.796;9.026;2022-12-01T23:20:42;8.10;81.20
15298;DHT22;7750;48.796;9.026;2022-12-01T23:25:44;8.10;80.40
15298;DHT22;7750;48.796;9.026;2022-12-01T23:30:47;8.00;80.30
15298;DHT22;7750;48.796;9.026;2022-12-01T23:36:02;8.10;80.30
15298;DHT22;7750;48.796;9.026;2022-12-01T23:41:05;8.10;80.30
15298;DHT22;7750;48.796;9.026;2022-12-01T23:46:08;8.10;80.20
15298;DHT22;7750;48.796;9.026;2022-12-01T23:51:22;8.00;80.20
15298;DHT22;7750;48.796;9.026;2022-12-01T23:56:25;8.10;80.20
